Time;durP1;ratioP1;P1;durP2;ratioP2;P2;SDS_P1;SDS_P2;PMS_P1;PMS_P2;Temp;Humidity;BMP_temperature;BMP_pressure;BME280_temperature;BME280_humidity;BME280_pressure;Samples;Min_cycle;Max_cycle;Signal;HPM_P1;HPM_P2
2022/01/03 00:00:45;;;;;;;31.93;10.20;;;9.30;92.90;;;;;;4992016;28;20798;-78
2022/01/03 00:03:15;;;;;;;27.97;10.03;;;9.30;93.00;;;;;;4989359;28;20200;-78
2022/01/03 00:05:44;;;;;;;31.13;12.63;;;9.30;93.00;;;;;;4991545;28;20284;-78
2022/01/03 00:08:12;;;;;;;31.13;13.13;;;9.30;93.00;;;;;;4994590;28;20437;-77
2022/01/03 00:10:41;;;;;;;28.87;11.83;;;9.30;93.10;;;;;;4995589;28;20195;-78
2022/01/03 00:13:09;;;;;;;27.77;11.70;;;9.30;93.30;;;;;;4993861;28;20208;-78
2022/01/03 00:15:38;;;;;;;27.37;10.80;;;9.20;93.20;;;;;;4999809;28;20189;-78
2022/01/03 00:18:07;;;;;;;24.47;10.67;;;9.30;93.20;;;;;;4992779;28;20681;-78
2022/01/03 00:20:38;;;;;;;33.03;10.43;;;9.20;93.20;;;;;;4997109;28;20200;-78
2022/01/03 00:23:09;;;;;;;23.27;9.47;;;9.30;93.30;;;;;;4994735;28;20200;-78
2022/01/03 00:25:39;;;;;;;36.70;10.47;;;9.30;93.30;;;;;;4992081;28;20192;-78
2022/01/03 00:28:15;;;;;;;28.07;11.40;;;9.30;93.30;;;;;;4995685;28;20192;-78
2022/01/03 00:30:44;;;;;;;26.53;10.70;;;9.30;93.30;;;;;;4991678;28;20201;-78
2022/01/03 00:33:16;;;;;;;22.53;9.97;;;9.40;93.30;;;;;;4990738;28;20941;-78
2022/01/03 00:35:44;;;;;;;25.93;9.70;;;9.50;93.30;;;;;;4995546;28;20200;-78
2022/01/03 00:38:13;;;;;;;27.03;9.97;;;9.50;93.20;;;;;;4984085;28;20192;-78
2022/01/03 00:40:42;;;;;;;35.07;11.50;;;9.50;93.10;;;;;;4987608;28;20197;-78
2022/01/03 00:43:11;;;;;;;25.10;10.13;;;9.50;93.60;;;;;;4995989;28;20196;-78
2022/01/03 00:45:39;;;;;;;24.50;9.43;;;9.60;93.20;;;;;;4996641;28;20608;-78
2022/01/03 00:48:09;;;;;;;26.10;10.07;;;9.60;93.10;;;;;;4998211;28;20199;-77
2022/01/03 00:50:39;;;;;;;22.10;8.77;;;9.60;93.10;;;;;;4994960;28;20642;-78
2022/01/03 00:53:08;;;;;;;24.50;8.97;;;9.60;93.00;;;;;;4995215;28;20532;-78
2022/01/03 00:55:36;;;;;;;25.10;9.20;;;9.60;93.00;;;;;;4994997;28;20220;-78
2022/01/03 00:58:09;;;;;;;37.30;10.37;;;9.60;93.00;;;;;;4984714;28;20200;-78
2022/01/03 01:00:40;;;;;;;23.33;9.50;;;9.60;93.00;;;;;;4991692;28;20197;-78
2022/01/03 01:03:14;;;;;;;20.57;9.30;;;9.60;93.00;;;;;;4987303;28;20185;-78
2022/01/03 01:05:48;;;;;;;20.73;9.40;;;9.60;93.00;;;;;;4991611;28;20197;-78
2022/01/03 01:08:19;;;;;;;22.23;8.03;;;9.50;93.00;;;;;;4996549;28;20185;-77
2022/01/03 01:10:50;;;;;;;21.17;9.43;;;9.50;93.00;;;;;;4995602;28;20193;-78
2022/01/03 01:13:19;;;;;;;17.67;8.50;;;9.50;93.10;;;;;;4986563;28;20696;-78
2022/01/03 01:15:48;;;;;;;22.03;8.90;;;9.40;93.10;;;;;;4991448;28;20592;-78
2022/01/03 01:18:17;;;;;;;22.57;8.03;;;9.40;93.10;;;;;;4996287;28;20230;-78
2022/01/03 01:20:46;;;;;;;24.50;9.03;;;9.40;93.10;;;;;;4990283;28;20197;-77
2022/01/03 01:23:15;;;;;;;22.97;9.53;;;9.40;93.10;;;;;;4988268;28;20201;-78
2022/01/03 01:28:29;;;;;;;28.87;9.00;;;9.30;93.20;;;;;;4997340;28;20192;-78
2022/01/03 01:31:00;;;;;;;23.30;9.03;;;9.30;93.20;;;;;;5003323;28;20192;-78
2022/01/03 01:33:33;;;;;;;20.00;9.07;;;9.30;93.20;;;;;;5000161;28;20646;-78
2022/01/03 01:36:14;;;;;;;24.40;8.77;;;9.30;93.30;;;;;;4996745;28;20193;-78
2022/01/03 01:38:48;;;;;;;19.90;9.13;;;9.30;93.30;;;;;;5002899;28;20189;-78
2022/01/03 01:41:19;;;;;;;20.93;9.20;;;9.20;93.40;;;;;;4994395;28;20220;-79
2022/01/03 01:43:49;;;;;;;22.50;9.37;;;9.20;93.40;;;;;;5003351;28;20205;-78
2022/01/03 01:46:21;;;;;;;26.37;9.93;;;9.20;93.60;;;;;;4991513;28;20204;-79
2022/01/03 01:48:50;;;;;;;28.53;9.63;;;9.20;93.50;;;;;;4990184;28;20200;-78
2022/01/03 01:51:22;;;;;;;30.93;9.43;;;9.10;93.50;;;;;;4995573;28;20631;-78
2022/01/03 01:53:53;;;;;;;18.57;9.13;;;9.10;93.60;;;;;;4996643;28;20193;-78
2022/01/03 01:56:23;;;;;;;24.50;9.03;;;9.10;93.60;;;;;;4998255;28;20207;-78
2022/01/03 01:59:09;;;;;;;23.63;7.90;;;9.10;93.60;;;;;;5000215;28;20192;-79
2022/01/03 02:01:49;;;;;;;28.37;7.97;;;9.00;93.50;;;;;;4994267;28;20185;-78
2022/01/03 02:04:30;;;;;;;17.23;8.43;;;9.00;93.60;;;;;;4991368;28;20188;-78
2022/01/03 02:07:19;;;;;;;13.53;6.83;;;9.00;93.60;;;;;;4993821;28;20934;-78
2022/01/03 02:10:00;;;;;;;32.33;7.33;;;9.00;93.50;;;;;;5001622;28;20191;-78
2022/01/03 02:12:29;;;;;;;18.17;7.63;;;9.00;93.50;;;;;;4994601;28;20198;-78
2022/01/03 02:14:58;;;;;;;16.70;7.00;;;9.00;93.50;;;;;;5005612;28;20227;-80
2022/01/03 02:17:26;;;;;;;22.60;7.23;;;9.10;93.60;;;;;;5003378;28;20195;-79
2022/01/03 02:20:10;;;;;;;20.07;8.20;;;9.10;93.50;;;;;;5001302;28;20188;-79
2022/01/03 02:22:45;;;;;;;16.77;7.50;;;9.10;93.50;;;;;;4999314;28;20197;-78
2022/01/03 02:25:18;;;;;;;18.43;8.17;;;9.10;93.50;;;;;;4988510;28;20222;-78
2022/01/03 02:27:49;;;;;;;17.07;7.90;;;9.10;93.40;;;;;;5001246;28;20204;-78
2022/01/03 02:30:20;;;;;;;22.60;8.13;;;9.00;93.30;;;;;;4988603;28;20197;-78
2022/01/03 02:32:48;;;;;;;18.40;8.10;;;9.00;93.40;;;;;;4997441;28;20197;-78
2022/01/03 02:35:19;;;;;;;24.27;7.87;;;9.00;93.50;;;;;;4988629;28;20228;-77
2022/01/03 02:37:48;;;;;;;20.03;7.67;;;8.90;93.50;;;;;;4998216;28;20200;-77
2022/01/03 02:40:18;;;;;;;19.10;7.77;;;8.90;93.60;;;;;;4999846;28;20219;-78
2022/01/03 02:42:47;;;;;;;22.47;9.07;;;8.90;93.60;;;;;;4988660;28;20216;-78
2022/01/03 02:45:18;;;;;;;22.60;8.07;;;9.00;93.60;;;;;;4998749;28;20204;-77
2022/01/03 02:47:49;;;;;;;19.10;7.30;;;8.90;93.70;;;;;;5003229;28;20224;-77
2022/01/03 02:50:21;;;;;;;26.30;7.63;;;8.90;93.70;;;;;;4992676;28;20199;-78
2022/01/03 02:52:50;;;;;;;17.63;7.27;;;8.90;93.80;;;;;;4993879;28;20196;-78
2022/01/03 02:55:19;;;;;;;18.93;7.60;;;8.90;93.80;;;;;;4986667;28;20232;-78
2022/01/03 02:57:49;;;;;;;20.55;8.13;;;8.90;93.80;;;;;;4986344;28;20477;-78
2022/01/03 03:00:19;;;;;;;16.63;7.37;;;8.90;93.80;;;;;;4999620;28;20195;-78
2022/01/03 03:02:48;;;;;;;19.17;7.90;;;8.90;93.90;;;;;;5004406;28;20192;-78
2022/01/03 03:05:17;;;;;;;15.93;7.43;;;8.90;93.80;;;;;;4987107;28;20205;-78
2022/01/03 03:07:49;;;;;;;15.47;7.27;;;8.90;93.90;;;;;;4991431;28;20207;-77
2022/01/03 03:10:20;;;;;;;19.83;7.07;;;8.90;93.90;;;;;;4990611;28;20201;-78
2022/01/03 03:12:49;;;;;;;18.70;7.00;;;8.90;94.00;;;;;;5004382;28;20223;-77
2022/01/03 03:15:18;;;;;;;13.43;6.77;;;8.90;93.90;;;;;;4996893;28;20231;-78
2022/01/03 03:17:47;;;;;;;20.80;7.40;;;8.90;93.90;;;;;;4992389;28;20199;-77
2022/01/03 03:20:17;;;;;;;12.47;6.90;;;8.90;93.90;;;;;;4988787;28;20219;-78
2022/01/03 03:22:49;;;;;;;12.80;6.90;;;8.90;93.90;;;;;;4991820;28;20199;-79
2022/01/03 03:25:20;;;;;;;12.80;6.50;;;8.90;93.90;;;;;;4994997;28;20196;-78
2022/01/03 03:27:51;;;;;;;22.07;6.60;;;8.90;93.80;;;;;;4990977;28;20196;-77
2022/01/03 03:30:22;;;;;;;18.23;6.00;;;8.90;93.90;;;;;;5000044;28;20195;-76
2022/01/03 03:32:52;;;;;;;18.10;6.50;;;8.90;94.00;;;;;;4999742;28;20187;-80
2022/01/03 03:35:21;;;;;;;11.10;6.23;;;8.90;94.00;;;;;;4993937;28;20229;-77
2022/01/03 03:37:50;;;;;;;11.13;5.60;;;8.80;93.80;;;;;;4990308;28;20211;-77
2022/01/03 03:40:19;;;;;;;20.77;6.07;;;8.80;93.80;;;;;;4990337;28;20196;-78
2022/01/03 03:42:48;;;;;;;16.93;6.37;;;8.80;93.90;;;;;;4991142;28;20215;-77
2022/01/03 03:45:16;;;;;;;14.83;6.63;;;8.80;94.00;;;;;;5000363;28;20212;-77
2022/01/03 03:47:45;;;;;;;15.80;6.70;;;8.70;94.10;;;;;;4999714;28;20196;-77
2022/01/03 03:50:14;;;;;;;14.03;6.43;;;8.70;94.10;;;;;;4981392;28;20203;-77
2022/01/03 03:52:43;;;;;;;16.40;6.87;;;8.70;94.10;;;;;;4992809;28;20775;-77
2022/01/03 03:55:13;;;;;;;12.40;6.13;;;8.70;94.10;;;;;;4994989;28;20219;-77
2022/01/03 03:57:42;;;;;;;18.33;6.97;;;8.70;94.10;;;;;;4992514;28;20196;-77
2022/01/03 04:00:14;;;;;;;22.90;7.73;;;8.70;94.20;;;;;;4986732;28;20720;-78
2022/01/03 04:02:43;;;;;;;14.23;6.23;;;8.70;94.20;;;;;;4994948;28;20435;-78
2022/01/03 04:05:12;;;;;;;16.90;7.97;;;8.70;94.20;;;;;;4992508;28;20771;-77
2022/01/03 04:07:41;;;;;;;18.50;7.50;;;8.70;94.20;;;;;;5002031;28;20204;-78
2022/01/03 04:10:15;;;;;;;14.13;7.67;;;8.70;94.30;;;;;;4989171;28;20201;-77
2022/01/03 04:12:44;;;;;;;18.33;7.37;;;8.70;94.30;;;;;;4995315;28;20192;-79
2022/01/03 04:15:14;;;;;;;19.20;7.20;;;8.70;94.30;;;;;;5002867;28;20197;-78
2022/01/03 04:17:42;;;;;;;13.27;6.97;;;8.70;94.30;;;;;;4996450;28;20193;-77
2022/01/03 04:20:13;;;;;;;17.77;6.87;;;8.70;94.30;;;;;;4991305;28;20204;-77
2022/01/03 04:22:42;;;;;;;14.63;6.87;;;8.80;94.30;;;;;;5001948;28;20188;-77
2022/01/03 04:25:12;;;;;;;12.67;6.50;;;8.70;94.10;;;;;;4995766;28;20193;-77
2022/01/03 04:27:41;;;;;;;18.53;7.00;;;8.70;94.10;;;;;;4986924;28;20192;-78
2022/01/03 04:30:10;;;;;;;17.80;7.60;;;8.70;94.10;;;;;;4987053;28;20572;-78
2022/01/03 04:32:38;;;;;;;16.10;7.47;;;8.70;94.20;;;;;;5000875;28;20188;-77
2022/01/03 04:35:08;;;;;;;14.27;6.40;;;8.70;94.10;;;;;;4984361;28;20228;-77
2022/01/03 04:37:36;;;;;;;13.47;6.43;;;8.70;94.10;;;;;;4989441;28;20634;-78
2022/01/03 04:40:06;;;;;;;20.07;6.53;;;8.70;94.10;;;;;;5002220;28;20231;-77
2022/01/03 04:42:35;;;;;;;16.37;6.77;;;8.70;94.20;;;;;;4999733;28;20193;-77
2022/01/03 04:45:04;;;;;;;14.97;7.40;;;8.70;94.20;;;;;;4996128;28;20192;-77
2022/01/03 04:47:33;;;;;;;18.77;7.40;;;8.80;94.20;;;;;;4994088;28;20706;-78
2022/01/03 04:50:01;;;;;;;16.50;7.33;;;8.70;94.30;;;;;;5001260;28;20733;-78
2022/01/03 04:52:29;;;;;;;19.50;7.63;;;8.70;94.40;;;;;;4989342;28;20235;-79
2022/01/03 04:54:58;;;;;;;15.73;6.50;;;8.70;94.30;;;;;;5001959;28;20574;-78
2022/01/03 04:57:26;;;;;;;16.77;7.20;;;8.70;94.30;;;;;;4996714;28;20215;-77
2022/01/03 04:59:56;;;;;;;19.67;7.70;;;8.70;94.30;;;;;;4992051;28;20205;-78
2022/01/03 05:02:24;;;;;;;18.73;7.37;;;8.70;94.30;;;;;;5001762;28;20232;-78
2022/01/03 05:04:52;;;;;;;18.60;7.23;;;8.70;94.30;;;;;;4994903;28;20231;-77
2022/01/03 05:07:21;;;;;;;18.43;7.10;;;8.80;94.30;;;;;;4996422;28;20211;-78
2022/01/03 05:09:49;;;;;;;21.77;8.00;;;8.70;94.30;;;;;;4995174;28;20823;-77
2022/01/03 05:12:18;;;;;;;23.80;7.40;;;8.70;94.40;;;;;;5005512;28;20204;-78
2022/01/03 05:14:46;;;;;;;20.33;7.63;;;8.70;94.30;;;;;;4988402;28;20199;-77
2022/01/03 05:17:16;;;;;;;18.13;7.33;;;8.80;94.30;;;;;;4993744;28;20587;-78
2022/01/03 05:19:45;;;;;;;19.20;7.70;;;8.70;94.30;;;;;;4997309;28;20204;-78
2022/01/03 05:22:13;;;;;;;22.20;7.90;;;8.70;94.30;;;;;;4987060;28;20221;-78
2022/01/03 05:24:41;;;;;;;15.27;7.13;;;8.70;94.20;;;;;;4994725;28;20200;-78
2022/01/03 05:27:10;;;;;;;20.30;7.23;;;8.60;94.20;;;;;;4991923;28;20200;-78
2022/01/03 05:29:38;;;;;;;18.47;7.07;;;8.60;94.20;;;;;;4996572;28;20196;-78
2022/01/03 05:32:07;;;;;;;17.80;7.07;;;8.60;94.10;;;;;;4990053;28;20208;-77
2022/01/03 05:34:37;;;;;;;19.80;8.87;;;8.60;94.20;;;;;;5001317;28;20219;-78
2022/01/03 05:37:05;;;;;;;22.30;8.07;;;8.60;94.20;;;;;;4994514;28;20223;-77
2022/01/03 05:39:34;;;;;;;17.67;7.17;;;8.50;94.20;;;;;;4996577;28;20193;-77
2022/01/03 05:42:02;;;;;;;23.17;7.70;;;8.50;94.20;;;;;;4990157;28;20551;-78
2022/01/03 05:44:30;;;;;;;31.27;7.63;;;8.50;94.20;;;;;;4998334;28;20596;-77
2022/01/03 05:46:59;;;;;;;19.47;7.47;;;8.50;94.30;;;;;;4994329;28;20203;-77
2022/01/03 05:49:28;;;;;;;34.57;7.80;;;8.50;94.30;;;;;;4993492;28;20231;-79
2022/01/03 05:51:57;;;;;;;20.20;7.80;;;8.40;94.30;;;;;;4998729;28;20198;-77
2022/01/03 05:54:26;;;;;;;22.73;8.53;;;8.40;94.30;;;;;;4996634;28;20207;-78
2022/01/03 05:56:55;;;;;;;23.40;7.90;;;8.30;94.30;;;;;;4994137;28;20499;-79
2022/01/03 05:59:23;;;;;;;25.90;7.77;;;8.40;94.30;;;;;;4989204;28;20211;-79
2022/01/03 06:01:53;;;;;;;34.63;9.53;;;8.40;94.30;;;;;;4998071;28;20669;-78
2022/01/03 06:04:24;;;;;;;18.50;8.37;;;8.40;94.30;;;;;;4989702;28;20193;-78
2022/01/03 06:06:57;;;;;;;17.90;8.77;;;8.40;94.40;;;;;;4996649;28;20196;-78
2022/01/03 06:09:27;;;;;;;22.00;8.83;;;8.40;94.40;;;;;;4993101;28;20197;-77
2022/01/03 06:11:56;;;;;;;18.77;8.37;;;8.40;94.40;;;;;;5002369;28;20188;-77
2022/01/03 06:14:24;;;;;;;18.80;7.03;;;8.40;94.30;;;;;;5000359;28;20196;-77
2022/01/03 06:16:53;;;;;;;20.87;8.00;;;8.40;94.40;;;;;;5002458;28;20217;-79
2022/01/03 06:19:22;;;;;;;22.07;7.57;;;8.30;94.30;;;;;;4996015;28;20712;-78
2022/01/03 06:21:51;;;;;;;15.60;8.60;;;8.30;94.40;;;;;;5000052;28;20216;-79
2022/01/03 06:24:20;;;;;;;17.93;7.73;;;8.30;94.40;;;;;;4993039;28;20224;-78
2022/01/03 06:26:51;;;;;;;25.30;8.23;;;8.40;94.40;;;;;;4993726;28;20185;-78
2022/01/03 06:29:20;;;;;;;15.33;7.60;;;8.40;94.50;;;;;;4994909;28;20188;-77
2022/01/03 06:31:50;;;;;;;20.63;8.30;;;8.40;94.50;;;;;;4995562;28;20208;-78
2022/01/03 06:34:19;;;;;;;26.47;8.00;;;8.40;94.40;;;;;;4999472;28;20212;-78
2022/01/03 06:36:48;;;;;;;22.40;9.03;;;8.40;94.50;;;;;;4986168;28;20224;-79
2022/01/03 06:39:16;;;;;;;17.53;8.00;;;8.40;94.50;;;;;;4990240;28;20196;-78
2022/01/03 06:41:45;;;;;;;17.77;8.47;;;8.40;94.60;;;;;;4993057;28;20263;-78
2022/01/03 06:44:15;;;;;;;24.47;8.43;;;8.40;94.70;;;;;;4990751;28;20207;-78
2022/01/03 06:46:43;;;;;;;21.67;8.43;;;8.40;94.70;;;;;;5002085;28;20617;-77
2022/01/03 06:49:12;;;;;;;22.30;8.90;;;8.40;94.80;;;;;;4994161;28;20196;-78
2022/01/03 06:51:41;;;;;;;18.63;7.93;;;8.40;94.90;;;;;;5002867;28;20208;-77
2022/01/03 06:54:12;;;;;;;19.40;9.07;;;8.40;94.90;;;;;;5002087;28;20240;-78
2022/01/03 06:56:41;;;;;;;16.63;8.53;;;8.40;95.20;;;;;;5001242;28;20816;-78
2022/01/03 06:59:10;;;;;;;17.00;8.53;;;8.40;94.80;;;;;;4985862;28;20193;-77
2022/01/03 07:01:40;;;;;;;25.07;7.90;;;8.30;94.90;;;;;;4996394;28;20611;-77
2022/01/03 07:04:08;;;;;;;14.83;7.80;;;8.40;94.90;;;;;;4994367;28;20193;-78
2022/01/03 07:06:37;;;;;;;17.07;8.33;;;8.30;95.00;;;;;;4999399;28;20191;-77
2022/01/03 07:09:07;;;;;;;16.83;9.33;;;8.30;95.10;;;;;;4989511;28;20208;-77
2022/01/03 07:11:36;;;;;;;18.93;9.33;;;8.30;95.20;;;;;;4996914;28;20922;-78
2022/01/03 07:18:56;;;;;;;19.00;8.70;;;8.30;95.30;;;;;;4996302;28;20196;-78
2022/01/03 07:19:47;;;;;;;18.53;8.90;;;8.30;95.30;;;;;;4994005;28;20287;-76
2022/01/03 07:22:15;;;;;;;21.57;9.53;;;8.30;95.20;;;;;;5001480;28;20192;-77
2022/01/03 07:24:43;;;;;;;17.60;9.57;;;8.30;95.20;;;;;;4992691;28;20196;-78
2022/01/03 07:27:13;;;;;;;17.73;9.33;;;8.40;95.20;;;;;;4987817;28;20197;-77
2022/01/03 07:29:44;;;;;;;16.97;8.87;;;8.40;95.20;;;;;;4992385;28;20200;-78
2022/01/03 07:32:14;;;;;;;16.30;9.33;;;8.40;95.20;;;;;;5001571;28;20210;-75
2022/01/03 07:34:42;;;;;;;19.97;9.50;;;8.40;95.30;;;;;;4987085;28;20722;-76
2022/01/03 07:37:11;;;;;;;15.80;8.40;;;8.40;95.40;;;;;;4996062;28;20229;-78
2022/01/03 07:39:40;;;;;;;18.73;9.17;;;8.40;95.40;;;;;;4994101;28;20185;-76
2022/01/03 07:42:08;;;;;;;18.13;8.80;;;8.40;95.40;;;;;;4999399;28;20608;-78
2022/01/03 07:44:37;;;;;;;23.93;10.50;;;8.50;95.50;;;;;;4997586;28;20555;-78
2022/01/03 07:47:06;;;;;;;16.87;9.70;;;8.50;95.40;;;;;;4995309;28;20204;-78
2022/01/03 07:49:36;;;;;;;18.47;8.97;;;8.50;95.40;;;;;;4998523;28;20196;-78
2022/01/03 07:52:06;;;;;;;20.33;9.93;;;8.60;95.40;;;;;;4996203;28;20180;-76
2022/01/03 07:54:34;;;;;;;18.03;8.93;;;8.60;95.40;;;;;;4985122;28;20189;-78
2022/01/03 07:57:04;;;;;;;22.00;10.27;;;8.60;95.30;;;;;;5005127;28;20224;-77
2022/01/03 07:59:33;;;;;;;20.60;9.90;;;8.60;95.30;;;;;;4992458;28;20193;-77
2022/01/03 08:02:01;;;;;;;18.97;9.90;;;8.70;95.30;;;;;;4984837;28;20208;-78
2022/01/03 08:04:30;;;;;;;20.23;10.27;;;8.60;95.20;;;;;;4992276;28;20188;-77
2022/01/03 08:07:00;;;;;;;20.17;10.13;;;8.60;95.00;;;;;;4985679;28;20795;-77
2022/01/03 08:09:29;;;;;;;21.90;10.53;;;8.70;95.10;;;;;;4985856;28;20204;-77
2022/01/03 08:11:57;;;;;;;20.37;10.43;;;8.80;95.10;;;;;;4995966;28;20200;-76
2022/01/03 08:14:26;;;;;;;19.67;9.93;;;8.80;95.00;;;;;;4998340;28;20196;-77
2022/01/03 08:16:54;;;;;;;16.97;9.07;;;8.80;94.90;;;;;;5001818;28;20442;-78
2022/01/03 08:19:23;;;;;;;17.53;8.67;;;8.80;94.90;;;;;;4984939;28;21017;-79
2022/01/03 08:21:51;;;;;;;17.80;9.30;;;8.90;94.80;;;;;;4992262;28;20185;-76
2022/01/03 08:24:21;;;;;;;16.90;9.27;;;8.80;94.60;;;;;;4994131;28;20203;-77
2022/01/03 08:26:50;;;;;;;18.70;10.23;;;8.80;94.50;;;;;;4997688;28;20192;-77
2022/01/03 08:29:18;;;;;;;20.33;11.10;;;8.80;94.60;;;;;;5001813;28;20224;-77
2022/01/03 08:31:46;;;;;;;17.40;8.63;;;8.90;94.80;;;;;;4999681;28;20208;-79
2022/01/03 08:34:15;;;;;;;21.17;10.17;;;8.90;94.70;;;;;;4995338;28;20266;-78
2022/01/03 08:36:44;;;;;;;17.70;9.87;;;9.00;94.80;;;;;;4989297;28;20193;-77
2022/01/03 08:39:12;;;;;;;17.97;9.23;;;9.00;94.60;;;;;;4991660;28;20765;-78
2022/01/03 08:41:42;;;;;;;17.93;9.77;;;9.10;94.60;;;;;;4988627;28;20197;-78
2022/01/03 08:44:11;;;;;;;19.83;10.50;;;9.10;94.50;;;;;;5000732;28;20263;-76
2022/01/03 08:46:40;;;;;;;16.23;9.33;;;9.10;94.30;;;;;;5012118;28;20200;-78
2022/01/03 08:49:09;;;;;;;16.57;9.43;;;9.10;94.30;;;;;;5003138;28;20192;-77
2022/01/03 08:51:37;;;;;;;16.33;9.47;;;9.20;94.30;;;;;;4991989;28;20199;-77
2022/01/03 08:54:05;;;;;;;17.03;10.10;;;9.20;94.30;;;;;;5000139;28;20312;-78
2022/01/03 08:56:34;;;;;;;19.30;11.13;;;9.30;94.30;;;;;;4995097;28;20849;-80
2022/01/03 08:59:04;;;;;;;17.87;10.60;;;9.30;94.10;;;;;;4994922;28;20736;-78
2022/01/03 09:01:32;;;;;;;16.10;9.97;;;9.30;94.00;;;;;;4998054;28;20731;-77
2022/01/03 09:04:01;;;;;;;19.83;10.33;;;9.30;94.10;;;;;;4991436;28;20194;-77
2022/01/03 09:06:29;;;;;;;19.70;10.10;;;9.40;94.10;;;;;;4985682;28;20300;-78
2022/01/03 09:08:57;;;;;;;19.87;10.97;;;9.40;94.10;;;;;;4989026;28;20671;-77
2022/01/03 09:11:30;;;;;;;20.83;10.90;;;9.40;93.90;;;;;;5003268;28;20177;-77
2022/01/03 09:13:59;;;;;;;17.70;10.17;;;9.40;93.90;;;;;;4994480;28;20190;-78
2022/01/03 09:16:28;;;;;;;20.50;11.07;;;9.40;93.90;;;;;;4985743;28;20197;-78
2022/01/03 09:18:57;;;;;;;22.70;11.90;;;9.50;93.90;;;;;;4991415;28;20219;-77
2022/01/03 09:21:25;;;;;;;17.23;10.63;;;9.60;93.90;;;;;;4991204;28;20335;-77
2022/01/03 09:24:22;;;;;;;18.60;11.20;;;9.60;93.80;;;;;;5000246;28;20215;-78
2022/01/03 09:29:36;;;;;;;18.07;11.23;;;9.70;93.70;;;;;;4993546;28;20650;-79
2022/01/03 09:32:07;;;;;;;17.23;10.80;;;9.70;93.60;;;;;;5003156;28;20719;-79
2022/01/03 09:34:35;;;;;;;17.77;10.47;;;9.80;93.70;;;;;;4997008;28;20216;-79
2022/01/03 09:37:05;;;;;;;19.23;10.40;;;9.90;93.50;;;;;;4989357;28;20188;-78
2022/01/03 09:39:34;;;;;;;17.73;10.00;;;10.00;93.50;;;;;;4989073;28;20217;-78
2022/01/03 09:42:05;;;;;;;18.63;9.63;;;10.10;93.50;;;;;;4984117;28;20200;-79
2022/01/03 09:44:35;;;;;;;17.27;10.00;;;10.20;93.40;;;;;;4986542;28;20194;-78
2022/01/03 09:47:07;;;;;;;21.73;9.60;;;10.30;93.30;;;;;;4984766;28;20193;-80
2022/01/03 09:49:37;;;;;;;16.27;9.77;;;10.30;93.10;;;;;;4998862;28;20196;-80
2022/01/03 09:52:08;;;;;;;19.50;10.40;;;10.50;93.20;;;;;;5007231;28;20214;-79
2022/01/03 09:54:38;;;;;;;17.07;10.00;;;10.50;93.00;;;;;;4991330;28;20663;-77
2022/01/03 09:57:07;;;;;;;18.50;9.97;;;10.60;93.00;;;;;;4990755;28;20190;-77
2022/01/03 09:59:37;;;;;;;20.37;9.80;;;10.70;93.00;;;;;;4989181;28;20300;-77
2022/01/03 10:02:09;;;;;;;19.13;9.73;;;10.70;92.70;;;;;;4987945;28;20197;-77
2022/01/03 10:04:38;;;;;;;17.23;9.63;;;10.80;92.80;;;;;;4992263;28;20650;-77
2022/01/03 10:07:10;;;;;;;17.13;9.83;;;10.80;92.60;;;;;;4996958;28;20204;-77
2022/01/03 10:09:39;;;;;;;17.80;9.17;;;10.90;92.50;;;;;;4997966;28;20597;-77
2022/01/03 10:12:11;;;;;;;16.63;8.93;;;10.90;92.40;;;;;;4995269;28;20288;-77
2022/01/03 10:14:39;;;;;;;17.30;10.13;;;11.00;92.40;;;;;;4992150;28;20188;-77
2022/01/03 10:17:09;;;;;;;15.73;9.07;;;11.00;92.30;;;;;;5007608;28;20535;-76
2022/01/03 10:19:52;;;;;;;13.40;8.03;;;11.10;92.20;;;;;;4998155;28;20201;-76
2022/01/03 10:22:22;;;;;;;15.53;10.00;;;11.10;92.00;;;;;;4987388;28;20190;-77
2022/01/03 10:24:50;;;;;;;14.80;9.47;;;11.10;91.90;;;;;;5002281;28;20181;-77
2022/01/03 10:27:19;;;;;;;17.20;9.70;;;11.20;91.90;;;;;;5005580;28;20432;-77
2022/01/03 10:29:59;;;;;;;16.53;9.30;;;11.30;91.90;;;;;;5004810;28;20189;-77
2022/01/03 10:32:31;;;;;;;15.43;8.67;;;11.30;91.60;;;;;;5004382;28;20202;-77
2022/01/03 10:35:13;;;;;;;20.40;9.53;;;11.30;91.60;;;;;;4999658;28;20229;-77
2022/01/03 10:37:42;;;;;;;16.00;8.87;;;11.40;91.60;;;;;;4997881;28;20184;-77
2022/01/03 10:40:25;;;;;;;16.97;8.77;;;11.40;91.30;;;;;;5000412;28;20221;-77
2022/01/03 10:42:53;;;;;;;16.77;9.63;;;11.50;91.60;;;;;;5004364;28;20854;-76
2022/01/03 10:45:31;;;;;;;14.90;8.97;;;11.60;91.30;;;;;;5006746;28;20203;-77
2022/01/03 10:48:02;;;;;;;14.53;8.23;;;11.70;91.20;;;;;;5002840;28;20235;-76
2022/01/03 10:50:30;;;;;;;14.73;8.90;;;11.70;91.00;;;;;;5001074;28;20185;-77
2022/01/03 10:53:04;;;;;;;14.33;9.17;;;11.80;90.80;;;;;;4998879;28;20228;-76
2022/01/03 10:55:34;;;;;;;15.20;8.70;;;11.90;90.90;;;;;;4987130;28;20201;-75
2022/01/03 10:58:06;;;;;;;16.50;9.67;;;12.00;90.70;;;;;;4989715;28;20181;-76
2022/01/03 11:00:37;;;;;;;13.53;8.23;;;12.00;90.50;;;;;;4993939;28;20216;-76
2022/01/03 11:03:20;;;;;;;15.90;8.90;;;12.20;90.70;;;;;;5000724;28;20184;-76
2022/01/03 11:05:53;;;;;;;15.70;8.90;;;12.30;90.50;;;;;;5004544;28;20635;-76
2022/01/03 11:11:09;;;;;;;18.80;9.43;;;12.40;90.00;;;;;;4986253;28;20188;-76
2022/01/03 11:13:42;;;;;;;18.93;9.17;;;12.40;90.00;;;;;;4988757;28;20194;-76
2022/01/03 11:16:13;;;;;;;17.97;10.27;;;12.50;90.00;;;;;;4980398;28;20188;-77
2022/01/03 11:18:47;;;;;;;17.87;9.70;;;12.50;89.70;;;;;;4992516;28;20197;-76
2022/01/03 11:21:17;;;;;;;18.87;9.57;;;12.50;89.50;;;;;;4985823;28;20275;-77
2022/01/03 11:23:47;;;;;;;16.23;10.40;;;12.50;89.30;;;;;;5002541;28;20196;-77
2022/01/03 11:26:18;;;;;;;22.80;10.07;;;12.50;88.80;;;;;;4996413;28;20225;-76
2022/01/03 11:28:47;;;;;;;17.70;10.30;;;12.50;89.20;;;;;;4994043;28;20197;-75
2022/01/03 11:31:18;;;;;;;16.83;10.10;;;12.50;89.40;;;;;;5003445;28;20201;-76
2022/01/03 11:33:49;;;;;;;15.93;9.47;;;12.50;89.40;;;;;;5001724;28;20224;-75
2022/01/03 11:36:39;;;;;;;17.47;9.70;;;12.50;89.10;;;;;;4989873;28;20185;-78
2022/01/03 11:39:09;;;;;;;16.45;9.57;;;12.50;89.50;;;;;;4995503;28;20492;-77
2022/01/03 11:41:39;;;;;;;16.33;9.17;;;12.60;89.80;;;;;;4997850;28;20188;-76
2022/01/03 11:44:11;;;;;;;15.33;9.80;;;12.60;89.80;;;;;;4987467;28;20184;-78
2022/01/03 11:46:41;;;;;;;14.70;8.67;;;12.70;89.90;;;;;;4985342;28;21086;-77
2022/01/03 11:49:11;;;;;;;15.23;9.13;;;12.80;90.00;;;;;;4994613;28;20193;-77
2022/01/03 11:51:40;;;;;;;16.63;9.20;;;12.90;90.00;;;;;;5004676;28;20199;-78
2022/01/03 11:54:10;;;;;;;16.40;8.67;;;12.90;89.70;;;;;;5004406;28;20189;-78
2022/01/03 11:56:44;;;;;;;14.37;8.87;;;13.00;89.90;;;;;;5000283;28;20197;-76
2022/01/03 11:59:34;;;;;;;15.10;8.57;;;13.10;89.10;;;;;;4992927;28;20203;-76
2022/01/03 12:05:09;;;;;;;16.97;8.17;;;13.20;89.00;;;;;;5004521;28;20188;-78
2022/01/03 12:07:54;;;;;;;16.07;8.17;;;13.20;88.50;;;;;;5004619;28;20192;-79
2022/01/03 12:10:23;;;;;;;17.40;9.03;;;13.20;88.60;;;;;;4985118;28;20185;-76
2022/01/03 12:12:59;;;;;;;16.57;8.00;;;13.20;88.80;;;;;;5002865;28;20816;-76
2022/01/03 12:15:33;;;;;;;14.27;7.90;;;13.30;88.80;;;;;;4997369;28;20547;-77
2022/01/03 12:18:02;;;;;;;15.43;8.00;;;13.30;88.80;;;;;;4995354;28;20185;-77
2022/01/03 12:20:43;;;;;;;16.13;7.70;;;13.40;88.90;;;;;;4990767;28;20224;-76
2022/01/03 12:23:39;;;;;;;15.13;8.80;;;13.50;88.90;;;;;;5001484;28;20188;-76
2022/01/03 12:26:09;;;;;;;13.63;7.57;;;13.50;88.60;;;;;;4990163;28;20200;-76
2022/01/03 12:29:06;;;;;;;14.10;8.03;;;13.60;88.80;;;;;;4984395;28;20531;-76
2022/01/03 12:32:12;;;;;;;12.00;7.43;;;13.60;88.50;;;;;;4999278;28;20896;-77
2022/01/03 12:34:40;;;;;;;14.83;7.50;;;13.60;88.00;;;;;;5001527;28;20227;-77
2022/01/03 12:37:18;;;;;;;15.33;8.30;;;13.70;88.50;;;;;;5002753;28;20582;-77
2022/01/03 12:40:13;;;;;;;12.80;7.60;;;13.80;88.80;;;;;;5001033;28;20203;-77
2022/01/03 12:42:56;;;;;;;14.57;7.23;;;13.90;88.90;;;;;;4995921;28;20200;-77
2022/01/03 12:45:52;;;;;;;18.40;8.47;;;14.00;88.50;;;;;;4996647;28;20184;-78
2022/01/03 12:48:23;;;;;;;15.50;8.20;;;14.10;87.70;;;;;;4967350;28;20209;-77
2022/01/03 12:51:14;;;;;;;16.50;8.53;;;14.10;87.50;;;;;;4999826;28;20188;-78
2022/01/03 12:53:56;;;;;;;14.00;8.40;;;14.20;87.80;;;;;;5003801;28;20196;-77
2022/01/03 12:56:32;;;;;;;15.90;7.40;;;14.20;87.80;;;;;;5001671;28;20200;-78
2022/01/03 12:59:12;;;;;;;14.30;7.33;;;14.30;87.70;;;;;;4984397;28;20188;-78
2022/01/03 13:01:41;;;;;;;13.33;8.10;;;14.30;87.40;;;;;;4987245;28;20201;-77
2022/01/03 13:04:26;;;;;;;18.63;8.20;;;14.30;87.30;;;;;;4988959;28;20217;-77
2022/01/03 13:07:04;;;;;;;14.93;8.00;;;14.40;87.80;;;;;;5005241;28;20200;-77
2022/01/03 13:09:40;;;;;;;13.13;7.63;;;14.40;87.60;;;;;;5000656;28;20207;-78
2022/01/03 13:12:08;;;;;;;20.13;8.93;;;14.40;88.60;;;;;;4990205;28;20192;-77
2022/01/03 13:14:36;;;;;;;14.27;7.73;;;14.40;87.70;;;;;;5002375;28;20200;-77
2022/01/03 13:17:05;;;;;;;17.30;9.10;;;14.40;87.70;;;;;;4987520;28;20668;-77